sensor_id;sensor_type;location;lat;lon;timestamp;temperature;humidity
62464;SHT31;48512;48.552;9.380;2022-10-23T00:02:24;15.19;77.76
62464;SHT31;48512;48.552;9.380;2022-10-23T00:04:50;15.26;77.24
62464;SHT31;48512;48.552;9.380;2022-10-23T00:07:15;15.29;77.26
62464;SHT31;48512;48.552;9.380;2022-10-23T00:09:41;15.26;77.24
62464;SHT31;48512;48.552;9.380;2022-10-23T00:12:06;15.23;77.01
62464;SHT31;48512;48.552;9.380;2022-10-23T00:14:31;15.19;77.11
62464;SHT31;48512;48.552;9.380;2022-10-23T00:16:56;15.26;76.99
62464;SHT31;48512;48.552;9.380;2022-10-23T00:19:22;15.09;77.19
62464;SHT31;48512;48.552;9.380;2022-10-23T00:21:47;15.18;76.54
62464;SHT31;48512;48.552;9.380;2022-10-23T00:24:12;15.10;76.69
62464;SHT31;48512;48.552;9.380;2022-10-23T00:26:38;15.13;76.39
62464;SHT31;48512;48.552;9.380;2022-10-23T00:29:04;15.08;76.40
62464;SHT31;48512;48.552;9.380;2022-10-23T00:31:29;15.03;76.47
62464;SHT31;48512;48.552;9.380;2022-10-23T00:33:55;15.12;76.37
62464;SHT31;48512;48.552;9.380;2022-10-23T00:36:20;15.09;76.20
62464;SHT31;48512;48.552;9.380;2022-10-23T00:38:46;15.12;75.84
62464;SHT31;48512;48.552;9.380;2022-10-23T00:41:19;15.02;76.03
62464;SHT31;48512;48.552;9.380;2022-10-23T00:46:22;15.05;75.85
62464;SHT31;48512;48.552;9.380;2022-10-23T00:48:47;15.06;75.69
62464;SHT31;48512;48.552;9.380;2022-10-23T00:51:12;15.15;75.31
62464;SHT31;48512;48.552;9.380;2022-10-23T00:53:38;15.09;75.35
62464;SHT31;48512;48.552;9.380;2022-10-23T00:56:03;15.10;75.59
62464;SHT31;48512;48.552;9.380;2022-10-23T00:58:29;15.03;75.69
62464;SHT31;48512;48.552;9.380;2022-10-23T01:00:55;15.02;75.61
62464;SHT31;48512;48.552;9.380;2022-10-23T01:03:22;15.10;75.07
62464;SHT31;48512;48.552;9.380;2022-10-23T01:05:53;15.03;75.23
62464;SHT31;48512;48.552;9.380;2022-10-23T01:08:22;15.05;75.37
62464;SHT31;48512;48.552;9.380;2022-10-23T01:10:51;15.05;75.35
62464;SHT31;48512;48.552;9.380;2022-10-23T01:13:36;15.02;75.46
62464;SHT31;48512;48.552;9.380;2022-10-23T01:20:58;15.10;74.58
62464;SHT31;48512;48.552;9.380;2022-10-23T01:28:24;15.03;74.93
62464;SHT31;48512;48.552;9.380;2022-10-23T01:30:50;15.03;74.90
62464;SHT31;48512;48.552;9.380;2022-10-23T01:33:18;15.02;74.72
62464;SHT31;48512;48.552;9.380;2022-10-23T01:35:47;15.05;74.44
62464;SHT31;48512;48.552;9.380;2022-10-23T01:38:24;15.02;74.30
62464;SHT31;48512;48.552;9.380;2022-10-23T01:43:17;15.06;73.53
62464;SHT31;48512;48.552;9.380;2022-10-23T01:45:45;15.10;73.32
62464;SHT31;48512;48.552;9.380;2022-10-23T01:48:12;15.09;73.01
62464;SHT31;48512;48.552;9.380;2022-10-23T01:50:40;15.13;72.97
62464;SHT31;48512;48.552;9.380;2022-10-23T01:53:05;15.06;74.08
62464;SHT31;48512;48.552;9.380;2022-10-23T01:55:31;15.06;74.60
62464;SHT31;48512;48.552;9.380;2022-10-23T01:57:56;14.88;75.48
62464;SHT31;48512;48.552;9.380;2022-10-23T02:00:23;14.79;76.05
62464;SHT31;48512;48.552;9.380;2022-10-23T02:02:48;14.60;77.05
62464;SHT31;48512;48.552;9.380;2022-10-23T02:05:16;14.42;77.76
62464;SHT31;48512;48.552;9.380;2022-10-23T02:07:42;14.36;78.03
62464;SHT31;48512;48.552;9.380;2022-10-23T02:10:08;14.40;77.17
62464;SHT31;48512;48.552;9.380;2022-10-23T02:12:38;14.48;76.97
62464;SHT31;48512;48.552;9.380;2022-10-23T02:17:46;14.09;78.91
62464;SHT31;48512;48.552;9.380;2022-10-23T02:20:21;14.05;79.07
62464;SHT31;48512;48.552;9.380;2022-10-23T02:22:51;14.03;79.01
62464;SHT31;48512;48.552;9.380;2022-10-23T02:25:20;13.90;79.34
62464;SHT31;48512;48.552;9.380;2022-10-23T02:27:49;13.78;79.58
62464;SHT31;48512;48.552;9.380;2022-10-23T02:30:16;13.78;79.51
62464;SHT31;48512;48.552;9.380;2022-10-23T02:32:45;13.71;79.58
62464;SHT31;48512;48.552;9.380;2022-10-23T02:35:11;13.65;79.87
62464;SHT31;48512;48.552;9.380;2022-10-23T02:37:37;13.55;80.09
62464;SHT31;48512;48.552;9.380;2022-10-23T02:40:02;13.59;79.96
62464;SHT31;48512;48.552;9.380;2022-10-23T02:42:51;13.45;80.61
62464;SHT31;48512;48.552;9.380;2022-10-23T02:45:27;13.44;80.32
62464;SHT31;48512;48.552;9.380;2022-10-23T02:47:54;13.31;80.82
62464;SHT31;48512;48.552;9.380;2022-10-23T02:50:35;13.27;80.95
62464;SHT31;48512;48.552;9.380;2022-10-23T02:55:39;13.21;81.21
62464;SHT31;48512;48.552;9.380;2022-10-23T02:58:17;13.21;81.33
62464;SHT31;48512;48.552;9.380;2022-10-23T03:00:48;13.24;81.17
62464;SHT31;48512;48.552;9.380;2022-10-23T03:03:18;13.20;80.96
62464;SHT31;48512;48.552;9.380;2022-10-23T03:05:44;13.16;81.26
62464;SHT31;48512;48.552;9.380;2022-10-23T03:08:10;13.17;81.15
62464;SHT31;48512;48.552;9.380;2022-10-23T03:10:36;13.17;81.22
62464;SHT31;48512;48.552;9.380;2022-10-23T03:13:01;13.17;81.09
62464;SHT31;48512;48.552;9.380;2022-10-23T03:15:26;13.20;81.01
62464;SHT31;48512;48.552;9.380;2022-10-23T03:17:52;13.13;81.26
62464;SHT31;48512;48.552;9.380;2022-10-23T03:20:17;13.17;81.27
62464;SHT31;48512;48.552;9.380;2022-10-23T03:22:42;13.18;81.64
62464;SHT31;48512;48.552;9.380;2022-10-23T03:25:08;13.20;81.23
62464;SHT31;48512;48.552;9.380;2022-10-23T03:27:33;13.20;81.17
62464;SHT31;48512;48.552;9.380;2022-10-23T03:29:58;13.20;81.12
62464;SHT31;48512;48.552;9.380;2022-10-23T03:32:24;13.21;81.20
62464;SHT31;48512;48.552;9.380;2022-10-23T03:34:49;13.09;81.51
62464;SHT31;48512;48.552;9.380;2022-10-23T03:37:14;13.02;81.87
62464;SHT31;48512;48.552;9.380;2022-10-23T03:39:39;12.95;82.08
62464;SHT31;48512;48.552;9.380;2022-10-23T03:42:05;12.96;82.37
62464;SHT31;48512;48.552;9.380;2022-10-23T03:44:30;12.97;82.37
62464;SHT31;48512;48.552;9.380;2022-10-23T03:46:56;12.97;82.51
62464;SHT31;48512;48.552;9.380;2022-10-23T03:49:21;12.97;82.45
62464;SHT31;48512;48.552;9.380;2022-10-23T03:51:46;12.95;82.20
62464;SHT31;48512;48.552;9.380;2022-10-23T03:54:18;12.92;82.34
62464;SHT31;48512;48.552;9.380;2022-10-23T03:56:43;12.80;82.56
62464;SHT31;48512;48.552;9.380;2022-10-23T03:59:08;12.68;83.03
62464;SHT31;48512;48.552;9.380;2022-10-23T04:01:33;12.75;82.72
62464;SHT31;48512;48.552;9.380;2022-10-23T04:03:59;12.61;83.02
62464;SHT31;48512;48.552;9.380;2022-10-23T04:06:25;12.66;82.74
62464;SHT31;48512;48.552;9.380;2022-10-23T04:08:50;12.62;82.71
62464;SHT31;48512;48.552;9.380;2022-10-23T04:11:15;12.56;82.94
62464;SHT31;48512;48.552;9.380;2022-10-23T04:13:41;12.56;82.92
62464;SHT31;48512;48.552;9.380;2022-10-23T04:16:06;12.37;83.65
62464;SHT31;48512;48.552;9.380;2022-10-23T04:18:31;12.35;83.50
62464;SHT31;48512;48.552;9.380;2022-10-23T04:20:56;12.48;83.41
62464;SHT31;48512;48.552;9.380;2022-10-23T04:23:22;12.32;83.74
62464;SHT31;48512;48.552;9.380;2022-10-23T04:25:47;12.35;83.67
62464;SHT31;48512;48.552;9.380;2022-10-23T04:28:12;12.40;83.53
62464;SHT31;48512;48.552;9.380;2022-10-23T04:30:37;12.35;83.58
62464;SHT31;48512;48.552;9.380;2022-10-23T04:33:03;12.38;83.54
62464;SHT31;48512;48.552;9.380;2022-10-23T04:35:28;12.40;83.64
62464;SHT31;48512;48.552;9.380;2022-10-23T04:37:53;12.48;83.45
62464;SHT31;48512;48.552;9.380;2022-10-23T04:40:19;12.45;83.43
62464;SHT31;48512;48.552;9.380;2022-10-23T04:42:44;12.46;83.51
62464;SHT31;48512;48.552;9.380;2022-10-23T04:45:09;12.45;83.58
62464;SHT31;48512;48.552;9.380;2022-10-23T04:47:35;12.35;83.99
62464;SHT31;48512;48.552;9.380;2022-10-23T04:50:00;12.32;84.10
62464;SHT31;48512;48.552;9.380;2022-10-23T04:52:25;12.34;84.27
62464;SHT31;48512;48.552;9.380;2022-10-23T04:54:50;12.16;84.97
62464;SHT31;48512;48.552;9.380;2022-10-23T04:57:16;12.11;85.17
62464;SHT31;48512;48.552;9.380;2022-10-23T04:59:41;12.16;85.13
62464;SHT31;48512;48.552;9.380;2022-10-23T05:02:06;12.18;85.07
62464;SHT31;48512;48.552;9.380;2022-10-23T05:04:31;12.20;85.28
62464;SHT31;48512;48.552;9.380;2022-10-23T05:06:57;12.17;85.40
62464;SHT31;48512;48.552;9.380;2022-10-23T05:09:22;12.27;85.02
62464;SHT31;48512;48.552;9.380;2022-10-23T05:11:47;12.18;85.30
62464;SHT31;48512;48.552;9.380;2022-10-23T05:14:13;12.18;85.26
62464;SHT31;48512;48.552;9.380;2022-10-23T05:16:41;12.21;85.12
62464;SHT31;48512;48.552;9.380;2022-10-23T05:19:07;12.24;84.99
62464;SHT31;48512;48.552;9.380;2022-10-23T05:21:34;12.31;84.90
62464;SHT31;48512;48.552;9.380;2022-10-23T05:24:00;12.23;85.05
62464;SHT31;48512;48.552;9.380;2022-10-23T05:26:26;12.18;85.38
62464;SHT31;48512;48.552;9.380;2022-10-23T05:28:51;12.17;85.31
62464;SHT31;48512;48.552;9.380;2022-10-23T05:31:17;12.18;85.25
62464;SHT31;48512;48.552;9.380;2022-10-23T05:33:43;12.10;85.64
62464;SHT31;48512;48.552;9.380;2022-10-23T05:36:08;11.90;86.15
62464;SHT31;48512;48.552;9.380;2022-10-23T05:38:33;11.97;86.27
62464;SHT31;48512;48.552;9.380;2022-10-23T05:40:59;11.98;85.93
62464;SHT31;48512;48.552;9.380;2022-10-23T05:43:25;12.05;85.63
62464;SHT31;48512;48.552;9.380;2022-10-23T05:45:51;11.97;85.78
62464;SHT31;48512;48.552;9.380;2022-10-23T05:48:17;12.10;85.43
62464;SHT31;48512;48.552;9.380;2022-10-23T05:50:42;12.03;85.62
62464;SHT31;48512;48.552;9.380;2022-10-23T05:53:08;12.00;85.68
62464;SHT31;48512;48.552;9.380;2022-10-23T05:55:34;12.03;85.68
62464;SHT31;48512;48.552;9.380;2022-10-23T05:58:00;12.04;85.59
62464;SHT31;48512;48.552;9.380;2022-10-23T06:00:26;12.16;85.29
62464;SHT31;48512;48.552;9.380;2022-10-23T06:02:51;12.00;85.71
62464;SHT31;48512;48.552;9.380;2022-10-23T06:05:16;12.03;85.71
62464;SHT31;48512;48.552;9.380;2022-10-23T06:07:42;12.01;85.89
62464;SHT31;48512;48.552;9.380;2022-10-23T06:10:07;11.98;85.95
62464;SHT31;48512;48.552;9.380;2022-10-23T06:12:32;11.96;86.25
62464;SHT31;48512;48.552;9.380;2022-10-23T06:14:58;11.93;86.42
62464;SHT31;48512;48.552;9.380;2022-10-23T06:17:23;11.93;86.43
62464;SHT31;48512;48.552;9.380;2022-10-23T06:19:48;11.89;86.79
62464;SHT31;48512;48.552;9.380;2022-10-23T06:22:13;11.82;86.95
62464;SHT31;48512;48.552;9.380;2022-10-23T06:24:39;11.90;86.74
62464;SHT31;48512;48.552;9.380;2022-10-23T06:27:04;11.82;87.17
62464;SHT31;48512;48.552;9.380;2022-10-23T06:29:29;11.82;87.22
62464;SHT31;48512;48.552;9.380;2022-10-23T06:31:54;11.87;86.94
62464;SHT31;48512;48.552;9.380;2022-10-23T06:34:20;11.98;86.71
62464;SHT31;48512;48.552;9.380;2022-10-23T06:36:45;11.93;86.85
62464;SHT31;48512;48.552;9.380;2022-10-23T06:39:10;12.04;86.57
62464;SHT31;48512;48.552;9.380;2022-10-23T06:41:36;12.23;85.64
62464;SHT31;48512;48.552;9.380;2022-10-23T06:44:02;12.10;86.47
62464;SHT31;48512;48.552;9.380;2022-10-23T06:46:28;12.04;86.76
62464;SHT31;48512;48.552;9.380;2022-10-23T06:48:56;12.05;86.75
62464;SHT31;48512;48.552;9.380;2022-10-23T06:51:22;12.13;86.49
62464;SHT31;48512;48.552;9.380;2022-10-23T06:53:48;12.11;86.51
62464;SHT31;48512;48.552;9.380;2022-10-23T06:56:13;12.20;86.32
62464;SHT31;48512;48.552;9.380;2022-10-23T06:58:39;12.25;86.09
62464;SHT31;48512;48.552;9.380;2022-10-23T07:01:05;12.31;86.04
62464;SHT31;48512;48.552;9.380;2022-10-23T07:03:31;12.37;85.69
62464;SHT31;48512;48.552;9.380;2022-10-23T07:06:08;12.40;85.86
62464;SHT31;48512;48.552;9.380;2022-10-23T07:08:33;12.40;86.06
62464;SHT31;48512;48.552;9.380;2022-10-23T07:11:05;12.42;86.44
62464;SHT31;48512;48.552;9.380;2022-10-23T07:13:32;12.44;86.31
62464;SHT31;48512;48.552;9.380;2022-10-23T07:15:57;12.37;87.19
62464;SHT31;48512;48.552;9.380;2022-10-23T07:18:22;12.56;86.52
62464;SHT31;48512;48.552;9.380;2022-10-23T07:20:48;12.58;86.54
62464;SHT31;48512;48.552;9.380;2022-10-23T07:23:15;12.69;86.18
62464;SHT31;48512;48.552;9.380;2022-10-23T07:25:40;12.68;86.22
62464;SHT31;48512;48.552;9.380;2022-10-23T07:28:05;12.76;86.12
62464;SHT31;48512;48.552;9.380;2022-10-23T07:30:31;12.86;85.76
62464;SHT31;48512;48.552;9.380;2022-10-23T07:32:56;12.88;85.89
62464;SHT31;48512;48.552;9.380;2022-10-23T07:35:23;12.96;85.58
62464;SHT31;48512;48.552;9.380;2022-10-23T07:37:48;13.06;85.48
62464;SHT31;48512;48.552;9.380;2022-10-23T07:40:13;13.10;85.55
62464;SHT31;48512;48.552;9.380;2022-10-23T07:42:39;13.18;85.18
62464;SHT31;48512;48.552;9.380;2022-10-23T07:45:05;13.34;86.80
62464;SHT31;48512;48.552;9.380;2022-10-23T07:47:31;13.38;85.17
62464;SHT31;48512;48.552;9.380;2022-10-23T07:49:57;13.47;84.86
62464;SHT31;48512;48.552;9.380;2022-10-23T07:52:22;13.57;84.55
62464;SHT31;48512;48.552;9.380;2022-10-23T07:54:51;13.64;84.07
62464;SHT31;48512;48.552;9.380;2022-10-23T07:57:16;13.74;84.11
62464;SHT31;48512;48.552;9.380;2022-10-23T07:59:41;13.83;83.99
62464;SHT31;48512;48.552;9.380;2022-10-23T08:02:09;13.87;83.71
62464;SHT31;48512;48.552;9.380;2022-10-23T08:04:35;14.10;83.02
62464;SHT31;48512;48.552;9.380;2022-10-23T08:07:00;14.16;81.93
62464;SHT31;48512;48.552;9.380;2022-10-23T08:09:25;14.34;78.61
62464;SHT31;48512;48.552;9.380;2022-10-23T08:11:50;14.71;76.35
62464;SHT31;48512;48.552;9.380;2022-10-23T08:14:16;15.06;80.09
62464;SHT31;48512;48.552;9.380;2022-10-23T08:16:41;15.10;77.89
62464;SHT31;48512;48.552;9.380;2022-10-23T08:19:06;15.40;76.19
62464;SHT31;48512;48.552;9.380;2022-10-23T08:21:32;15.68;76.32
62464;SHT31;48512;48.552;9.380;2022-10-23T08:23:58;15.80;76.80
62464;SHT31;48512;48.552;9.380;2022-10-23T08:26:24;16.21;73.00
62464;SHT31;48512;48.552;9.380;2022-10-23T08:28:50;16.74;68.83
62464;SHT31;48512;48.552;9.380;2022-10-23T08:31:16;17.12;65.30
62464;SHT31;48512;48.552;9.380;2022-10-23T08:33:42;17.36;62.24
62464;SHT31;48512;48.552;9.380;2022-10-23T08:36:21;17.73;61.65
62464;SHT31;48512;48.552;9.380;2022-10-23T08:38:47;17.90;61.13
62464;SHT31;48512;48.552;9.380;2022-10-23T08:41:17;18.07;60.11
62464;SHT31;48512;48.552;9.380;2022-10-23T08:43:45;18.18;59.89
62464;SHT31;48512;48.552;9.380;2022-10-23T08:46:12;18.38;60.10
62464;SHT31;48512;48.552;9.380;2022-10-23T08:48:40;18.59;60.90
62464;SHT31;48512;48.552;9.380;2022-10-23T08:51:10;18.58;63.00
62464;SHT31;48512;48.552;9.380;2022-10-23T08:53:44;18.63;65.77
62464;SHT31;48512;48.552;9.380;2022-10-23T08:56:19;19.14;56.90
62464;SHT31;48512;48.552;9.380;2022-10-23T09:01:35;19.80;53.99
62464;SHT31;48512;48.552;9.380;2022-10-23T09:04:02;20.21;54.11
62464;SHT31;48512;48.552;9.380;2022-10-23T09:06:40;20.45;53.90
62464;SHT31;48512;48.552;9.380;2022-10-23T09:09:16;20.61;53.45
62464;SHT31;48512;48.552;9.380;2022-10-23T09:11:50;20.86;52.12
62464;SHT31;48512;48.552;9.380;2022-10-23T09:19:30;21.40;49.87
62464;SHT31;48512;48.552;9.380;2022-10-23T09:21:56;21.61;49.55
62464;SHT31;48512;48.552;9.380;2022-10-23T09:24:22;21.70;50.07
62464;SHT31;48512;48.552;9.380;2022-10-23T09:26:48;22.04;49.56
62464;SHT31;48512;48.552;9.380;2022-10-23T09:29:35;22.16;48.35
62464;SHT31;48512;48.552;9.380;2022-10-23T09:32:00;22.40;47.96
62464;SHT31;48512;48.552;9.380;2022-10-23T09:34:27;22.60;48.22
62464;SHT31;48512;48.552;9.380;2022-10-23T09:36:57;22.87;48.70
62464;SHT31;48512;48.552;9.380;2022-10-23T09:39:25;22.91;53.00
62464;SHT31;48512;48.552;9.380;2022-10-23T09:41:51;22.90;47.35
62464;SHT31;48512;48.552;9.380;2022-10-23T09:44:23;23.22;46.37
62464;SHT31;48512;48.552;9.380;2022-10-23T09:49:22;23.21;45.93
62464;SHT31;48512;48.552;9.380;2022-10-23T09:54:15;23.45;45.50
62464;SHT31;48512;48.552;9.380;2022-10-23T09:56:45;24.00;44.42
62464;SHT31;48512;48.552;9.380;2022-10-23T10:01:44;24.13;44.37
62464;SHT31;48512;48.552;9.380;2022-10-23T10:04:10;24.32;43.82
62464;SHT31;48512;48.552;9.380;2022-10-23T10:06:35;24.36;44.20
62464;SHT31;48512;48.552;9.380;2022-10-23T10:09:02;24.35;44.77
62464;SHT31;48512;48.552;9.380;2022-10-23T10:11:36;24.58;45.41
62464;SHT31;48512;48.552;9.380;2022-10-23T10:21:32;24.72;44.85
62464;SHT31;48512;48.552;9.380;2022-10-23T10:34:26;25.69;43.38
62464;SHT31;48512;48.552;9.380;2022-10-23T10:36:56;25.75;42.70
62464;SHT31;48512;48.552;9.380;2022-10-23T10:57:38;24.29;57.10
62464;SHT31;48512;48.552;9.380;2022-10-23T11:00:23;24.05;55.73
62464;SHT31;48512;48.552;9.380;2022-10-23T11:02:56;24.61;57.25
62464;SHT31;48512;48.552;9.380;2022-10-23T11:05:32;24.35;55.85
62464;SHT31;48512;48.552;9.380;2022-10-23T11:08:04;24.53;54.93
62464;SHT31;48512;48.552;9.380;2022-10-23T11:10:29;24.36;56.55
62464;SHT31;48512;48.552;9.380;2022-10-23T11:12:56;23.94;56.55
62464;SHT31;48512;48.552;9.380;2022-10-23T11:15:27;23.63;56.35
62464;SHT31;48512;48.552;9.380;2022-10-23T11:17:54;23.59;57.44
62464;SHT31;48512;48.552;9.380;2022-10-23T11:22:57;23.42;60.27
62464;SHT31;48512;48.552;9.380;2022-10-23T11:38:32;23.65;51.28
62464;SHT31;48512;48.552;9.380;2022-10-23T11:41:05;23.84;52.85
62464;SHT31;48512;48.552;9.380;2022-10-23T11:44:21;23.97;47.63
62464;SHT31;48512;48.552;9.380;2022-10-23T11:48:46;24.55;45.87
62464;SHT31;48512;48.552;9.380;2022-10-23T11:51:28;24.59;45.35
62464;SHT31;48512;48.552;9.380;2022-10-23T11:54:39;24.86;44.50
62464;SHT31;48512;48.552;9.380;2022-10-23T11:59:26;25.57;43.82
62464;SHT31;48512;48.552;9.380;2022-10-23T12:01:53;25.35;43.26
62464;SHT31;48512;48.552;9.380;2022-10-23T12:04:44;25.21;44.43
62464;SHT31;48512;48.552;9.380;2022-10-23T12:07:13;25.17;44.35
62464;SHT31;48512;48.552;9.380;2022-10-23T12:09:43;25.95;44.65
62464;SHT31;48512;48.552;9.380;2022-10-23T12:14:42;26.40;44.72
62464;SHT31;48512;48.552;9.380;2022-10-23T12:22:14;27.60;40.37
62464;SHT31;48512;48.552;9.380;2022-10-23T12:27:16;26.82;42.31
62464;SHT31;48512;48.552;9.380;2022-10-23T12:29:54;26.78;41.79
62464;SHT31;48512;48.552;9.380;2022-10-23T12:40:16;27.15;39.62
62464;SHT31;48512;48.552;9.380;2022-10-23T12:42:48;27.77;39.43
62464;SHT31;48512;48.552;9.380;2022-10-23T12:45:15;27.84;39.36
62464;SHT31;48512;48.552;9.380;2022-10-23T12:47:43;27.85;38.62
62464;SHT31;48512;48.552;9.380;2022-10-23T12:50:23;28.02;38.17
62464;SHT31;48512;48.552;9.380;2022-10-23T12:52:50;28.70;37.81
62464;SHT31;48512;48.552;9.380;2022-10-23T12:55:16;28.83;37.06
62464;SHT31;48512;48.552;9.380;2022-10-23T12:57:41;29.80;36.91
62464;SHT31;48512;48.552;9.380;2022-10-23T13:00:08;30.29;35.70
62464;SHT31;48512;48.552;9.380;2022-10-23T13:02:36;30.89;35.77
62464;SHT31;48512;48.552;9.380;2022-10-23T13:05:02;31.27;35.32
62464;SHT31;48512;48.552;9.380;2022-10-23T13:07:30;31.16;34.23
62464;SHT31;48512;48.552;9.380;2022-10-23T13:09:56;31.29;33.08
62464;SHT31;48512;48.552;9.380;2022-10-23T13:12:26;31.27;32.60
62464;SHT31;48512;48.552;9.380;2022-10-23T13:14:56;31.09;33.47
62464;SHT31;48512;48.552;9.380;2022-10-23T13:17:31;31.31;32.38
62464;SHT31;48512;48.552;9.380;2022-10-23T13:20:06;31.21;32.70
62464;SHT31;48512;48.552;9.380;2022-10-23T13:22:32;30.23;34.83
62464;SHT31;48512;48.552;9.380;2022-10-23T13:24:57;29.86;33.61
62464;SHT31;48512;48.552;9.380;2022-10-23T13:27:23;29.29;34.10
62464;SHT31;48512;48.552;9.380;2022-10-23T13:29:49;29.00;34.83
62464;SHT31;48512;48.552;9.380;2022-10-23T13:32:25;28.98;35.31
62464;SHT31;48512;48.552;9.380;2022-10-23T13:34:52;30.08;34.20
62464;SHT31;48512;48.552;9.380;2022-10-23T13:39:46;30.06;33.76
62464;SHT31;48512;48.552;9.380;2022-10-23T13:42:12;29.25;33.94
62464;SHT31;48512;48.552;9.380;2022-10-23T13:44:38;29.32;34.91
62464;SHT31;48512;48.552;9.380;2022-10-23T13:47:03;29.32;35.59
62464;SHT31;48512;48.552;9.380;2022-10-23T13:49:29;28.71;37.39
62464;SHT31;48512;48.552;9.380;2022-10-23T13:51:55;28.32;38.15
62464;SHT31;48512;48.552;9.380;2022-10-23T13:54:22;28.23;38.58
62464;SHT31;48512;48.552;9.380;2022-10-23T13:56:47;27.70;40.44
62464;SHT31;48512;48.552;9.380;2022-10-23T13:59:13;27.50;40.92
62464;SHT31;48512;48.552;9.380;2022-10-23T14:01:39;27.29;41.20
62464;SHT31;48512;48.552;9.380;2022-10-23T14:04:05;27.25;41.87
62464;SHT31;48512;48.552;9.380;2022-10-23T14:06:30;26.92;42.54
62464;SHT31;48512;48.552;9.380;2022-10-23T14:08:56;26.94;42.27
62464;SHT31;48512;48.552;9.380;2022-10-23T14:11:22;26.69;43.35
62464;SHT31;48512;48.552;9.380;2022-10-23T14:13:48;26.48;41.72
62464;SHT31;48512;48.552;9.380;2022-10-23T14:16:14;26.24;42.80
62464;SHT31;48512;48.552;9.380;2022-10-23T14:18:40;26.29;43.36
62464;SHT31;48512;48.552;9.380;2022-10-23T14:21:06;26.20;42.76
62464;SHT31;48512;48.552;9.380;2022-10-23T14:23:31;26.02;43.41
62464;SHT31;48512;48.552;9.380;2022-10-23T14:26:04;25.79;43.77
62464;SHT31;48512;48.552;9.380;2022-10-23T14:28:29;25.66;44.16
62464;SHT31;48512;48.552;9.380;2022-10-23T14:30:54;25.58;44.79
62464;SHT31;48512;48.552;9.380;2022-10-23T14:33:20;25.59;44.67
62464;SHT31;48512;48.552;9.380;2022-10-23T14:35:45;25.49;45.11
62464;SHT31;48512;48.552;9.380;2022-10-23T14:38:10;25.23;44.89
62464;SHT31;48512;48.552;9.380;2022-10-23T14:40:36;24.86;45.64
62464;SHT31;48512;48.552;9.380;2022-10-23T14:43:02;24.94;44.99
62464;SHT31;48512;48.552;9.380;2022-10-23T14:45:28;24.97;45.01
62464;SHT31;48512;48.552;9.380;2022-10-23T14:47:54;24.75;44.88
62464;SHT31;48512;48.552;9.380;2022-10-23T14:50:19;24.72;44.96
62464;SHT31;48512;48.552;9.380;2022-10-23T14:52:45;24.62;44.11
62464;SHT31;48512;48.552;9.380;2022-10-23T14:55:10;24.91;43.92
62464;SHT31;48512;48.552;9.380;2022-10-23T14:57:35;25.17;42.95
62464;SHT31;48512;48.552;9.380;2022-10-23T15:00:02;24.89;43.71
62464;SHT31;48512;48.552;9.380;2022-10-23T15:02:28;24.97;43.14
62464;SHT31;48512;48.552;9.380;2022-10-23T15:04:53;24.75;43.66
62464;SHT31;48512;48.552;9.380;2022-10-23T15:07:18;24.77;43.88
62464;SHT31;48512;48.552;9.380;2022-10-23T15:09:44;24.87;43.80
62464;SHT31;48512;48.552;9.380;2022-10-23T15:12:09;24.82;44.11
62464;SHT31;48512;48.552;9.380;2022-10-23T15:14:34;24.65;44.17
62464;SHT31;48512;48.552;9.380;2022-10-23T15:17:00;24.61;44.47
62464;SHT31;48512;48.552;9.380;2022-10-23T15:19:26;24.47;45.42
62464;SHT31;48512;48.552;9.380;2022-10-23T15:21:51;24.22;45.05
62464;SHT31;48512;48.552;9.380;2022-10-23T15:24:16;24.29;45.19
62464;SHT31;48512;48.552;9.380;2022-10-23T15:26:42;24.13;44.67
62464;SHT31;48512;48.552;9.380;2022-10-23T15:29:08;24.01;45.78
62464;SHT31;48512;48.552;9.380;2022-10-23T15:34:02;23.90;45.57
62464;SHT31;48512;48.552;9.380;2022-10-23T15:36:27;23.63;46.08
62464;SHT31;48512;48.552;9.380;2022-10-23T15:38:52;23.63;45.65
62464;SHT31;48512;48.552;9.380;2022-10-23T15:41:22;23.76;45.98
62464;SHT31;48512;48.552;9.380;2022-10-23T15:43:51;23.38;45.63
62464;SHT31;48512;48.552;9.380;2022-10-23T15:46:16;23.10;46.83
62464;SHT31;48512;48.552;9.380;2022-10-23T15:48:41;23.10;46.06
62464;SHT31;48512;48.552;9.380;2022-10-23T15:51:07;23.15;45.22
62464;SHT31;48512;48.552;9.380;2022-10-23T15:53:32;23.18;48.29
62464;SHT31;48512;48.552;9.380;2022-10-23T15:55:57;23.26;48.11
62464;SHT31;48512;48.552;9.380;2022-10-23T15:58:23;23.12;45.51
62464;SHT31;48512;48.552;9.380;2022-10-23T16:00:48;23.16;47.86
62464;SHT31;48512;48.552;9.380;2022-10-23T16:03:13;23.19;47.33
62464;SHT31;48512;48.552;9.380;2022-10-23T16:05:39;23.35;46.88
62464;SHT31;48512;48.552;9.380;2022-10-23T16:08:04;22.92;45.40
62464;SHT31;48512;48.552;9.380;2022-10-23T16:10:30;23.18;45.09
62464;SHT31;48512;48.552;9.380;2022-10-23T16:12:55;23.02;47.52
62464;SHT31;48512;48.552;9.380;2022-10-23T16:15:21;22.95;47.96
62464;SHT31;48512;48.552;9.380;2022-10-23T16:17:46;22.71;47.05
62464;SHT31;48512;48.552;9.380;2022-10-23T16:20:13;22.77;46.43
62464;SHT31;48512;48.552;9.380;2022-10-23T16:22:38;22.74;46.57
62464;SHT31;48512;48.552;9.380;2022-10-23T16:25:04;22.67;46.70
62464;SHT31;48512;48.552;9.380;2022-10-23T16:27:30;22.67;46.42
62464;SHT31;48512;48.552;9.380;2022-10-23T16:29:55;22.65;47.31
62464;SHT31;48512;48.552;9.380;2022-10-23T16:32:20;22.78;45.69
62464;SHT31;48512;48.552;9.380;2022-10-23T16:34:46;22.64;45.93
62464;SHT31;48512;48.552;9.380;2022-10-23T16:37:11;22.59;45.66
62464;SHT31;48512;48.552;9.380;2022-10-23T16:39:36;22.73;45.68
62464;SHT31;48512;48.552;9.380;2022-10-23T16:42:02;22.54;46.36
62464;SHT31;48512;48.552;9.380;2022-10-23T16:44:27;22.59;46.37
62464;SHT31;48512;48.552;9.380;2022-10-23T16:46:53;22.40;47.21
62464;SHT31;48512;48.552;9.380;2022-10-23T16:49:18;22.30;47.21
62464;SHT31;48512;48.552;9.380;2022-10-23T16:51:43;22.30;46.91
62464;SHT31;48512;48.552;9.380;2022-10-23T16:54:09;22.23;47.23
62464;SHT31;48512;48.552;9.380;2022-10-23T16:56:34;22.20;47.54
62464;SHT31;48512;48.552;9.380;2022-10-23T16:59:00;22.26;46.99
62464;SHT31;48512;48.552;9.380;2022-10-23T17:01:27;22.09;47.87
62464;SHT31;48512;48.552;9.380;2022-10-23T17:03:53;22.05;48.14
62464;SHT31;48512;48.552;9.380;2022-10-23T17:06:20;21.92;48.22
62464;SHT31;48512;48.552;9.380;2022-10-23T17:08:45;21.84;48.31
62464;SHT31;48512;48.552;9.380;2022-10-23T17:11:15;21.98;48.22
62464;SHT31;48512;48.552;9.380;2022-10-23T17:13:41;21.85;48.58
62464;SHT31;48512;48.552;9.380;2022-10-23T17:16:08;21.64;49.57
62464;SHT31;48512;48.552;9.380;2022-10-23T17:18:34;21.68;49.45
62464;SHT31;48512;48.552;9.380;2022-10-23T17:21:00;21.75;48.91
62464;SHT31;48512;48.552;9.380;2022-10-23T17:23:26;21.81;49.42
62464;SHT31;48512;48.552;9.380;2022-10-23T17:25:51;21.73;49.44